sensor_id;sensor_type;location;lat;lon;timestamp;temperature;humidity
48666;DHT22;34452;50.796;4.994;2023-07-31T00:00:32;17.30;99.90
48666;DHT22;34452;50.796;4.994;2023-07-31T00:02:57;17.30;99.90
48666;DHT22;34452;50.796;4.994;2023-07-31T00:05:23;17.30;99.90
48666;DHT22;34452;50.796;4.994;2023-07-31T00:07:49;17.30;99.90
48666;DHT22;34452;50.796;4.994;2023-07-31T00:10:14;17.30;99.90
48666;DHT22;34452;50.796;4.994;2023-07-31T00:12:43;17.40;99.90
48666;DHT22;34452;50.796;4.994;2023-07-31T00:15:09;17.40;99.90
48666;DHT22;34452;50.796;4.994;2023-07-31T00:17:35;17.40;99.90
48666;DHT22;34452;50.796;4.994;2023-07-31T00:20:01;17.40;99.90
48666;DHT22;34452;50.796;4.994;2023-07-31T00:22:27;17.40;99.90
48666;DHT22;34452;50.796;4.994;2023-07-31T00:24:53;17.40;99.90
48666;DHT22;34452;50.796;4.994;2023-07-31T00:27:19;17.40;99.90
48666;DHT22;34452;50.796;4.994;2023-07-31T00:29:44;17.40;99.90
48666;DHT22;34452;50.796;4.994;2023-07-31T00:32:10;17.50;99.90
48666;DHT22;34452;50.796;4.994;2023-07-31T00:34:36;17.50;99.90
48666;DHT22;34452;50.796;4.994;2023-07-31T00:37:02;17.50;99.90
48666;DHT22;34452;50.796;4.994;2023-07-31T00:39:29;17.50;99.90
48666;DHT22;34452;50.796;4.994;2023-07-31T00:41:55;17.50;99.90
48666;DHT22;34452;50.796;4.994;2023-07-31T00:44:20;17.50;99.90
48666;DHT22;34452;50.796;4.994;2023-07-31T00:46:46;17.50;99.90
48666;DHT22;34452;50.796;4.994;2023-07-31T00:49:12;17.50;99.90
48666;DHT22;34452;50.796;4.994;2023-07-31T00:51:38;17.50;99.90
48666;DHT22;34452;50.796;4.994;2023-07-31T00:54:04;17.50;99.90
48666;DHT22;34452;50.796;4.994;2023-07-31T00:56:30;17.50;99.90
48666;DHT22;34452;50.796;4.994;2023-07-31T00:58:56;17.50;99.90
48666;DHT22;34452;50.796;4.994;2023-07-31T01:01:22;17.50;99.90
48666;DHT22;34452;50.796;4.994;2023-07-31T01:03:49;17.50;99.90
48666;DHT22;34452;50.796;4.994;2023-07-31T01:06:26;17.50;99.90
48666;DHT22;34452;50.796;4.994;2023-07-31T01:09:03;17.50;99.90
48666;DHT22;34452;50.796;4.994;2023-07-31T01:11:33;17.50;99.90
48666;DHT22;34452;50.796;4.994;2023-07-31T01:13:59;17.50;99.90
48666;DHT22;34452;50.796;4.994;2023-07-31T01:16:25;17.50;99.90
48666;DHT22;34452;50.796;4.994;2023-07-31T01:18:52;17.50;99.90
48666;DHT22;34452;50.796;4.994;2023-07-31T01:24:11;17.50;99.90
48666;DHT22;34452;50.796;4.994;2023-07-31T01:26:49;17.50;99.90
48666;DHT22;34452;50.796;4.994;2023-07-31T01:29:25;17.50;99.90
48666;DHT22;34452;50.796;4.994;2023-07-31T01:31:56;17.50;99.90
48666;DHT22;34452;50.796;4.994;2023-07-31T01:34:28;17.50;99.90
48666;DHT22;34452;50.796;4.994;2023-07-31T01:36:56;17.60;99.90
48666;DHT22;34452;50.796;4.994;2023-07-31T01:39:22;17.50;99.90
48666;DHT22;34452;50.796;4.994;2023-07-31T01:41:48;17.60;99.90
48666;DHT22;34452;50.796;4.994;2023-07-31T01:44:14;17.60;99.90
48666;DHT22;34452;50.796;4.994;2023-07-31T01:46:39;17.60;99.90
48666;DHT22;34452;50.796;4.994;2023-07-31T01:49:06;17.60;99.90
48666;DHT22;34452;50.796;4.994;2023-07-31T01:51:31;17.60;99.90
48666;DHT22;34452;50.796;4.994;2023-07-31T01:54:00;17.60;99.90
48666;DHT22;34452;50.796;4.994;2023-07-31T01:56:26;17.60;99.90
48666;DHT22;34452;50.796;4.994;2023-07-31T01:58:51;17.60;99.90
48666;DHT22;34452;50.796;4.994;2023-07-31T02:01:17;17.60;99.90
48666;DHT22;34452;50.796;4.994;2023-07-31T02:03:43;17.60;99.90
48666;DHT22;34452;50.796;4.994;2023-07-31T02:06:08;17.60;99.90
48666;DHT22;34452;50.796;4.994;2023-07-31T02:08:34;17.60;99.90
48666;DHT22;34452;50.796;4.994;2023-07-31T02:11:00;17.60;99.90
48666;DHT22;34452;50.796;4.994;2023-07-31T02:13:26;17.60;99.90
48666;DHT22;34452;50.796;4.994;2023-07-31T02:15:51;17.60;99.90
48666;DHT22;34452;50.796;4.994;2023-07-31T02:18:17;17.60;99.90
48666;DHT22;34452;50.796;4.994;2023-07-31T02:20:43;17.60;99.90
48666;DHT22;34452;50.796;4.994;2023-07-31T02:23:11;17.60;99.90
48666;DHT22;34452;50.796;4.994;2023-07-31T02:25:37;17.60;99.90
48666;DHT22;34452;50.796;4.994;2023-07-31T02:28:03;17.60;99.90
48666;DHT22;34452;50.796;4.994;2023-07-31T02:30:28;17.60;99.90
48666;DHT22;34452;50.796;4.994;2023-07-31T02:32:54;17.60;99.90
48666;DHT22;34452;50.796;4.994;2023-07-31T02:35:20;17.60;99.90
48666;DHT22;34452;50.796;4.994;2023-07-31T02:37:45;17.60;99.90
48666;DHT22;34452;50.796;4.994;2023-07-31T02:40:11;17.60;99.90
48666;DHT22;34452;50.796;4.994;2023-07-31T02:42:37;17.60;99.90
48666;DHT22;34452;50.796;4.994;2023-07-31T02:45:03;17.60;99.90
48666;DHT22;34452;50.796;4.994;2023-07-31T02:47:29;17.60;99.90
48666;DHT22;34452;50.796;4.994;2023-07-31T02:49:55;17.50;99.90
48666;DHT22;34452;50.796;4.994;2023-07-31T02:52:21;17.60;99.90
48666;DHT22;34452;50.796;4.994;2023-07-31T02:54:47;17.50;99.90
48666;DHT22;34452;50.796;4.994;2023-07-31T02:57:12;17.50;99.90
48666;DHT22;34452;50.796;4.994;2023-07-31T02:59:38;17.50;99.90
48666;DHT22;34452;50.796;4.994;2023-07-31T03:02:04;17.50;99.90
48666;DHT22;34452;50.796;4.994;2023-07-31T03:04:30;17.50;99.90
48666;DHT22;34452;50.796;4.994;2023-07-31T03:06:55;17.50;99.90
48666;DHT22;34452;50.796;4.994;2023-07-31T03:09:21;17.50;99.90
48666;DHT22;34452;50.796;4.994;2023-07-31T03:11:47;17.60;99.90
48666;DHT22;34452;50.796;4.994;2023-07-31T03:14:12;17.50;99.90
48666;DHT22;34452;50.796;4.994;2023-07-31T03:16:38;17.50;99.90
48666;DHT22;34452;50.796;4.994;2023-07-31T03:19:04;17.60;99.90
48666;DHT22;34452;50.796;4.994;2023-07-31T03:21:29;17.60;99.90
48666;DHT22;34452;50.796;4.994;2023-07-31T03:23:55;17.50;99.90
48666;DHT22;34452;50.796;4.994;2023-07-31T03:26:21;17.60;99.90
48666;DHT22;34452;50.796;4.994;2023-07-31T03:28:46;17.50;99.90
48666;DHT22;34452;50.796;4.994;2023-07-31T03:31:12;17.50;99.90
48666;DHT22;34452;50.796;4.994;2023-07-31T03:33:38;17.50;99.90
48666;DHT22;34452;50.796;4.994;2023-07-31T03:36:04;17.50;99.90
48666;DHT22;34452;50.796;4.994;2023-07-31T03:38:30;17.50;99.90
48666;DHT22;34452;50.796;4.994;2023-07-31T03:40:55;17.50;99.90
48666;DHT22;34452;50.796;4.994;2023-07-31T03:43:21;17.50;99.90
48666;DHT22;34452;50.796;4.994;2023-07-31T03:45:47;17.50;99.90
48666;DHT22;34452;50.796;4.994;2023-07-31T03:48:14;17.50;99.90
48666;DHT22;34452;50.796;4.994;2023-07-31T03:50:40;17.50;99.90
48666;DHT22;34452;50.796;4.994;2023-07-31T03:53:06;17.50;99.90
48666;DHT22;34452;50.796;4.994;2023-07-31T03:55:32;17.50;99.90
48666;DHT22;34452;50.796;4.994;2023-07-31T03:57:57;17.50;99.90
48666;DHT22;34452;50.796;4.994;2023-07-31T04:00:23;17.50;99.90
48666;DHT22;34452;50.796;4.994;2023-07-31T04:02:49;17.50;99.90
48666;DHT22;34452;50.796;4.994;2023-07-31T04:05:14;17.50;99.90
48666;DHT22;34452;50.796;4.994;2023-07-31T04:07:40;17.50;99.90
48666;DHT22;34452;50.796;4.994;2023-07-31T04:10:06;17.50;99.90
48666;DHT22;34452;50.796;4.994;2023-07-31T04:12:32;17.50;99.90
48666;DHT22;34452;50.796;4.994;2023-07-31T04:14:58;17.40;99.90
48666;DHT22;34452;50.796;4.994;2023-07-31T04:17:23;17.40;99.90
48666;DHT22;34452;50.796;4.994;2023-07-31T04:19:49;17.50;99.90
48666;DHT22;34452;50.796;4.994;2023-07-31T04:22:15;17.40;99.90
48666;DHT22;34452;50.796;4.994;2023-07-31T04:24:40;17.40;99.90
48666;DHT22;34452;50.796;4.994;2023-07-31T04:27:06;17.40;99.90
48666;DHT22;34452;50.796;4.994;2023-07-31T04:29:32;17.40;99.90
48666;DHT22;34452;50.796;4.994;2023-07-31T04:31:57;17.40;99.90
48666;DHT22;34452;50.796;4.994;2023-07-31T04:34:23;17.30;99.90
48666;DHT22;34452;50.796;4.994;2023-07-31T04:36:49;17.30;99.90
48666;DHT22;34452;50.796;4.994;2023-07-31T04:39:14;17.30;99.90
48666;DHT22;34452;50.796;4.994;2023-07-31T04:41:40;17.30;99.90
48666;DHT22;34452;50.796;4.994;2023-07-31T04:44:06;17.30;99.90
48666;DHT22;34452;50.796;4.994;2023-07-31T04:46:31;17.30;99.90
48666;DHT22;34452;50.796;4.994;2023-07-31T04:48:57;17.30;99.90
48666;DHT22;34452;50.796;4.994;2023-07-31T04:51:23;17.30;99.90
48666;DHT22;34452;50.796;4.994;2023-07-31T04:53:49;17.30;99.90
48666;DHT22;34452;50.796;4.994;2023-07-31T04:56:15;17.30;99.90
48666;DHT22;34452;50.796;4.994;2023-07-31T04:58:44;17.40;99.90
48666;DHT22;34452;50.796;4.994;2023-07-31T05:01:10;17.40;99.90
48666;DHT22;34452;50.796;4.994;2023-07-31T05:03:35;17.40;99.90
48666;DHT22;34452;50.796;4.994;2023-07-31T05:06:01;17.40;99.90
48666;DHT22;34452;50.796;4.994;2023-07-31T05:08:27;17.40;99.90
48666;DHT22;34452;50.796;4.994;2023-07-31T05:10:53;17.40;99.90
48666;DHT22;34452;50.796;4.994;2023-07-31T05:13:18;17.40;99.90
48666;DHT22;34452;50.796;4.994;2023-07-31T05:15:45;17.40;99.90
48666;DHT22;34452;50.796;4.994;2023-07-31T05:18:11;17.40;99.90
48666;DHT22;34452;50.796;4.994;2023-07-31T05:20:36;17.40;99.90
48666;DHT22;34452;50.796;4.994;2023-07-31T05:23:02;17.40;99.90
48666;DHT22;34452;50.796;4.994;2023-07-31T05:25:28;17.50;99.90
48666;DHT22;34452;50.796;4.994;2023-07-31T05:27:54;17.50;99.90
48666;DHT22;34452;50.796;4.994;2023-07-31T05:30:19;17.50;99.90
48666;DHT22;34452;50.796;4.994;2023-07-31T05:32:46;17.50;99.90
48666;DHT22;34452;50.796;4.994;2023-07-31T05:35:12;17.40;99.90
48666;DHT22;34452;50.796;4.994;2023-07-31T05:37:38;17.40;99.90
48666;DHT22;34452;50.796;4.994;2023-07-31T05:40:04;17.40;99.90
48666;DHT22;34452;50.796;4.994;2023-07-31T05:42:30;17.40;99.90
48666;DHT22;34452;50.796;4.994;2023-07-31T05:44:55;17.40;99.90
48666;DHT22;34452;50.796;4.994;2023-07-31T05:47:21;17.30;99.90
48666;DHT22;34452;50.796;4.994;2023-07-31T05:49:47;17.30;99.90
48666;DHT22;34452;50.796;4.994;2023-07-31T05:52:13;17.30;99.90
48666;DHT22;34452;50.796;4.994;2023-07-31T05:54:39;17.30;99.90
48666;DHT22;34452;50.796;4.994;2023-07-31T05:57:05;17.30;99.90
48666;DHT22;34452;50.796;4.994;2023-07-31T05:59:30;17.20;99.90
48666;DHT22;34452;50.796;4.994;2023-07-31T06:01:58;17.20;99.90
48666;DHT22;34452;50.796;4.994;2023-07-31T06:04:24;17.20;99.90
48666;DHT22;34452;50.796;4.994;2023-07-31T06:06:51;17.20;99.90
48666;DHT22;34452;50.796;4.994;2023-07-31T06:09:17;17.10;99.90
48666;DHT22;34452;50.796;4.994;2023-07-31T06:11:42;17.10;99.90
48666;DHT22;34452;50.796;4.994;2023-07-31T06:14:08;17.10;99.90
48666;DHT22;34452;50.796;4.994;2023-07-31T06:16:34;17.10;99.90
48666;DHT22;34452;50.796;4.994;2023-07-31T06:19:01;17.10;99.90
48666;DHT22;34452;50.796;4.994;2023-07-31T06:21:27;17.10;99.90
48666;DHT22;34452;50.796;4.994;2023-07-31T06:23:52;17.00;99.90
48666;DHT22;34452;50.796;4.994;2023-07-31T06:26:18;17.00;99.90
48666;DHT22;34452;50.796;4.994;2023-07-31T06:28:44;17.00;99.90
48666;DHT22;34452;50.796;4.994;2023-07-31T06:31:09;17.00;99.90
48666;DHT22;34452;50.796;4.994;2023-07-31T06:33:35;17.00;99.90
48666;DHT22;34452;50.796;4.994;2023-07-31T06:36:01;17.00;99.90
48666;DHT22;34452;50.796;4.994;2023-07-31T06:38:27;17.00;99.90
48666;DHT22;34452;50.796;4.994;2023-07-31T06:40:53;17.00;99.90
48666;DHT22;34452;50.796;4.994;2023-07-31T06:43:19;17.00;99.90
48666;DHT22;34452;50.796;4.994;2023-07-31T06:45:44;17.00;99.90
48666;DHT22;34452;50.796;4.994;2023-07-31T06:48:11;17.10;99.90
48666;DHT22;34452;50.796;4.994;2023-07-31T06:50:36;17.10;99.90
48666;DHT22;34452;50.796;4.994;2023-07-31T06:53:02;17.10;99.90
48666;DHT22;34452;50.796;4.994;2023-07-31T06:55:28;17.20;99.90
48666;DHT22;34452;50.796;4.994;2023-07-31T06:57:55;17.20;99.90
48666;DHT22;34452;50.796;4.994;2023-07-31T07:00:22;17.30;99.90
48666;DHT22;34452;50.796;4.994;2023-07-31T07:02:48;17.30;99.90
48666;DHT22;34452;50.796;4.994;2023-07-31T07:05:14;17.30;99.90
48666;DHT22;34452;50.796;4.994;2023-07-31T07:07:40;17.40;99.90
48666;DHT22;34452;50.796;4.994;2023-07-31T07:10:06;17.40;99.90
48666;DHT22;34452;50.796;4.994;2023-07-31T07:12:32;17.40;99.90
48666;DHT22;34452;50.796;4.994;2023-07-31T07:14:59;17.50;99.90
48666;DHT22;34452;50.796;4.994;2023-07-31T07:17:25;17.50;99.90
48666;DHT22;34452;50.796;4.994;2023-07-31T07:19:51;17.50;99.90
48666;DHT22;34452;50.796;4.994;2023-07-31T07:22:18;17.50;99.90
48666;DHT22;34452;50.796;4.994;2023-07-31T07:24:44;17.50;99.90
48666;DHT22;34452;50.796;4.994;2023-07-31T07:27:09;17.50;99.90
48666;DHT22;34452;50.796;4.994;2023-07-31T07:29:35;17.50;99.90
48666;DHT22;34452;50.796;4.994;2023-07-31T07:32:01;17.60;99.90
48666;DHT22;34452;50.796;4.994;2023-07-31T07:34:27;17.60;99.90
48666;DHT22;34452;50.796;4.994;2023-07-31T07:36:54;17.60;99.90
48666;DHT22;34452;50.796;4.994;2023-07-31T07:39:19;17.60;99.90
48666;DHT22;34452;50.796;4.994;2023-07-31T07:41:46;17.50;99.90
48666;DHT22;34452;50.796;4.994;2023-07-31T07:44:13;17.50;99.90
48666;DHT22;34452;50.796;4.994;2023-07-31T07:46:38;17.50;99.90
48666;DHT22;34452;50.796;4.994;2023-07-31T07:49:04;17.50;99.90
48666;DHT22;34452;50.796;4.994;2023-07-31T07:51:30;17.50;99.90
48666;DHT22;34452;50.796;4.994;2023-07-31T07:53:58;17.50;99.90
48666;DHT22;34452;50.796;4.994;2023-07-31T07:56:26;17.60;99.90
48666;DHT22;34452;50.796;4.994;2023-07-31T07:58:52;17.60;99.90
48666;DHT22;34452;50.796;4.994;2023-07-31T08:01:18;17.60;99.90
48666;DHT22;34452;50.796;4.994;2023-07-31T08:03:44;17.50;99.90
48666;DHT22;34452;50.796;4.994;2023-07-31T08:06:10;17.50;99.90
48666;DHT22;34452;50.796;4.994;2023-07-31T08:08:36;17.40;99.90
48666;DHT22;34452;50.796;4.994;2023-07-31T08:11:02;17.40;99.90
48666;DHT22;34452;50.796;4.994;2023-07-31T08:13:28;17.50;99.90
48666;DHT22;34452;50.796;4.994;2023-07-31T08:15:54;17.50;99.90
48666;DHT22;34452;50.796;4.994;2023-07-31T08:18:20;17.50;99.90
48666;DHT22;34452;50.796;4.994;2023-07-31T08:20:46;17.50;99.90
48666;DHT22;34452;50.796;4.994;2023-07-31T08:23:11;17.50;99.90
48666;DHT22;34452;50.796;4.994;2023-07-31T08:25:38;17.50;99.90
48666;DHT22;34452;50.796;4.994;2023-07-31T08:28:04;17.50;99.90
48666;DHT22;34452;50.796;4.994;2023-07-31T08:30:30;17.50;99.90
48666;DHT22;34452;50.796;4.994;2023-07-31T08:32:56;17.50;99.90
48666;DHT22;34452;50.796;4.994;2023-07-31T08:35:24;17.50;99.90
48666;DHT22;34452;50.796;4.994;2023-07-31T08:37:50;17.50;99.90
48666;DHT22;34452;50.796;4.994;2023-07-31T08:40:16;17.60;99.90
48666;DHT22;34452;50.796;4.994;2023-07-31T08:43:11;17.60;99.90
48666;DHT22;34452;50.796;4.994;2023-07-31T08:45:37;17.70;99.90
48666;DHT22;34452;50.796;4.994;2023-07-31T08:48:04;17.70;99.90
48666;DHT22;34452;50.796;4.994;2023-07-31T08:50:30;17.70;99.90
48666;DHT22;34452;50.796;4.994;2023-07-31T08:52:55;17.70;99.90
48666;DHT22;34452;50.796;4.994;2023-07-31T08:55:21;17.70;99.90
48666;DHT22;34452;50.796;4.994;2023-07-31T08:57:51;17.70;99.90
48666;DHT22;34452;50.796;4.994;2023-07-31T09:00:18;17.70;99.90
48666;DHT22;34452;50.796;4.994;2023-07-31T09:03:00;17.70;99.90
48666;DHT22;34452;50.796;4.994;2023-07-31T09:05:29;17.80;99.90
48666;DHT22;34452;50.796;4.994;2023-07-31T09:07:56;17.80;99.90
48666;DHT22;34452;50.796;4.994;2023-07-31T09:10:23;17.80;99.90
48666;DHT22;34452;50.796;4.994;2023-07-31T09:12:51;17.80;99.90
48666;DHT22;34452;50.796;4.994;2023-07-31T09:15:17;17.80;99.90
48666;DHT22;34452;50.796;4.994;2023-07-31T09:17:43;17.80;99.90
48666;DHT22;34452;50.796;4.994;2023-07-31T09:20:27;17.80;99.90
48666;DHT22;34452;50.796;4.994;2023-07-31T09:22:53;17.80;99.90
48666;DHT22;34452;50.796;4.994;2023-07-31T09:25:22;17.80;99.90
48666;DHT22;34452;50.796;4.994;2023-07-31T09:30:26;17.90;99.90
48666;DHT22;34452;50.796;4.994;2023-07-31T09:32:59;18.00;99.90
48666;DHT22;34452;50.796;4.994;2023-07-31T09:35:44;18.00;99.90
48666;DHT22;34452;50.796;4.994;2023-07-31T09:38:12;18.00;99.90
48666;DHT22;34452;50.796;4.994;2023-07-31T09:40:41;18.00;99.90
48666;DHT22;34452;50.796;4.994;2023-07-31T09:43:10;18.10;99.90
48666;DHT22;34452;50.796;4.994;2023-07-31T09:45:38;18.10;99.90
48666;DHT22;34452;50.796;4.994;2023-07-31T09:48:09;18.20;99.90
48666;DHT22;34452;50.796;4.994;2023-07-31T09:50:37;18.20;99.90
48666;DHT22;34452;50.796;4.994;2023-07-31T09:53:04;18.30;99.90
48666;DHT22;34452;50.796;4.994;2023-07-31T09:55:30;18.40;99.90
48666;DHT22;34452;50.796;4.994;2023-07-31T09:57:57;18.50;99.90
48666;DHT22;34452;50.796;4.994;2023-07-31T10:00:23;18.50;99.90
48666;DHT22;34452;50.796;4.994;2023-07-31T10:02:52;18.50;99.90
48666;DHT22;34452;50.796;4.994;2023-07-31T10:05:19;18.50;99.90
48666;DHT22;34452;50.796;4.994;2023-07-31T10:07:53;18.50;99.90
48666;DHT22;34452;50.796;4.994;2023-07-31T10:10:20;18.50;99.90
48666;DHT22;34452;50.796;4.994;2023-07-31T10:12:48;18.50;99.90
48666;DHT22;34452;50.796;4.994;2023-07-31T10:15:14;18.50;99.90
48666;DHT22;34452;50.796;4.994;2023-07-31T10:17:41;18.50;99.90
48666;DHT22;34452;50.796;4.994;2023-07-31T10:20:08;18.50;99.90
48666;DHT22;34452;50.796;4.994;2023-07-31T10:22:35;18.60;99.90
48666;DHT22;34452;50.796;4.994;2023-07-31T10:25:01;18.70;99.90
48666;DHT22;34452;50.796;4.994;2023-07-31T10:27:27;18.70;99.90
48666;DHT22;34452;50.796;4.994;2023-07-31T10:29:55;18.70;99.90
48666;DHT22;34452;50.796;4.994;2023-07-31T10:32:21;18.80;99.90
48666;DHT22;34452;50.796;4.994;2023-07-31T10:34:48;18.80;99.90
48666;DHT22;34452;50.796;4.994;2023-07-31T10:37:45;18.80;99.90
48666;DHT22;34452;50.796;4.994;2023-07-31T10:40:30;18.90;99.90
48666;DHT22;34452;50.796;4.994;2023-07-31T10:42:56;18.90;99.90
48666;DHT22;34452;50.796;4.994;2023-07-31T10:45:26;18.90;99.90
48666;DHT22;34452;50.796;4.994;2023-07-31T10:48:13;18.90;99.90
48666;DHT22;34452;50.796;4.994;2023-07-31T10:53:31;18.90;99.90
48666;DHT22;34452;50.796;4.994;2023-07-31T10:56:13;18.90;99.90
48666;DHT22;34452;50.796;4.994;2023-07-31T10:58:44;19.00;99.90
48666;DHT22;34452;50.796;4.994;2023-07-31T11:01:11;19.10;99.90
48666;DHT22;34452;50.796;4.994;2023-07-31T11:03:56;19.20;99.90
48666;DHT22;34452;50.796;4.994;2023-07-31T11:06:22;19.20;99.90
48666;DHT22;34452;50.796;4.994;2023-07-31T11:08:49;19.20;99.90
48666;DHT22;34452;50.796;4.994;2023-07-31T11:11:17;19.20;99.90
48666;DHT22;34452;50.796;4.994;2023-07-31T11:13:46;19.20;99.90
48666;DHT22;34452;50.796;4.994;2023-07-31T11:16:13;19.20;99.90
48666;DHT22;34452;50.796;4.994;2023-07-31T11:18:40;19.20;99.90
48666;DHT22;34452;50.796;4.994;2023-07-31T11:21:06;19.20;99.90
48666;DHT22;34452;50.796;4.994;2023-07-31T11:23:32;19.20;99.90
48666;DHT22;34452;50.796;4.994;2023-07-31T11:26:00;19.20;99.90
48666;DHT22;34452;50.796;4.994;2023-07-31T11:28:26;19.30;99.90
48666;DHT22;34452;50.796;4.994;2023-07-31T11:30:51;19.40;99.90
48666;DHT22;34452;50.796;4.994;2023-07-31T11:33:17;19.50;99.90
48666;DHT22;34452;50.796;4.994;2023-07-31T11:35:45;19.70;99.90
48666;DHT22;34452;50.796;4.994;2023-07-31T11:38:12;19.70;99.90
48666;DHT22;34452;50.796;4.994;2023-07-31T11:40:46;19.80;99.90
48666;DHT22;34452;50.796;4.994;2023-07-31T11:43:12;19.90;99.90
48666;DHT22;34452;50.796;4.994;2023-07-31T11:45:46;20.00;99.90
48666;DHT22;34452;50.796;4.994;2023-07-31T11:48:29;20.00;99.90
48666;DHT22;34452;50.796;4.994;2023-07-31T11:51:14;19.90;99.90
48666;DHT22;34452;50.796;4.994;2023-07-31T11:53:50;19.90;99.90
48666;DHT22;34452;50.796;4.994;2023-07-31T11:56:18;19.70;99.90
48666;DHT22;34452;50.796;4.994;2023-07-31T11:58:47;19.80;99.90
48666;DHT22;34452;50.796;4.994;2023-07-31T12:01:15;19.90;99.90
48666;DHT22;34452;50.796;4.994;2023-07-31T12:03:41;20.00;99.90
48666;DHT22;34452;50.796;4.994;2023-07-31T12:06:08;20.10;99.90
48666;DHT22;34452;50.796;4.994;2023-07-31T12:08:34;20.10;99.90
48666;DHT22;34452;50.796;4.994;2023-07-31T12:11:18;20.10;99.90
48666;DHT22;34452;50.796;4.994;2023-07-31T12:13:44;20.10;99.90
48666;DHT22;34452;50.796;4.994;2023-07-31T12:16:09;20.10;99.90
48666;DHT22;34452;50.796;4.994;2023-07-31T12:18:37;20.10;99.90
48666;DHT22;34452;50.796;4.994;2023-07-31T12:21:05;20.10;99.90
48666;DHT22;34452;50.796;4.994;2023-07-31T12:23:33;20.20;99.90
48666;DHT22;34452;50.796;4.994;2023-07-31T12:26:17;20.30;99.90
48666;DHT22;34452;50.796;4.994;2023-07-31T12:28:45;20.60;99.90
48666;DHT22;34452;50.796;4.994;2023-07-31T12:31:15;20.80;99.90
48666;DHT22;34452;50.796;4.994;2023-07-31T12:33:43;21.00;99.90
48666;DHT22;34452;50.796;4.994;2023-07-31T12:36:12;21.00;99.90
48666;DHT22;34452;50.796;4.994;2023-07-31T12:38:38;21.00;99.90
48666;DHT22;34452;50.796;4.994;2023-07-31T12:41:04;21.00;99.90
48666;DHT22;34452;50.796;4.994;2023-07-31T12:43:31;20.90;99.90
48666;DHT22;34452;50.796;4.994;2023-07-31T12:45:57;20.80;99.90
48666;DHT22;34452;50.796;4.994;2023-07-31T12:48:23;20.60;99.90
48666;DHT22;34452;50.796;4.994;2023-07-31T12:50:49;20.40;99.90
48666;DHT22;34452;50.796;4.994;2023-07-31T12:53:16;20.40;99.90
48666;DHT22;34452;50.796;4.994;2023-07-31T12:55:42;20.30;99.90
48666;DHT22;34452;50.796;4.994;2023-07-31T12:58:07;20.20;99.90
48666;DHT22;34452;50.796;4.994;2023-07-31T13:00:33;20.20;99.90
48666;DHT22;34452;50.796;4.994;2023-07-31T13:02:59;20.10;99.90
48666;DHT22;34452;50.796;4.994;2023-07-31T13:05:26;20.00;99.90
48666;DHT22;34452;50.796;4.994;2023-07-31T13:07:52;19.90;99.90
48666;DHT22;34452;50.796;4.994;2023-07-31T13:10:18;19.90;99.90
48666;DHT22;34452;50.796;4.994;2023-07-31T13:12:44;19.90;99.90
48666;DHT22;34452;50.796;4.994;2023-07-31T13:15:10;20.00;99.90
48666;DHT22;34452;50.796;4.994;2023-07-31T13:17:36;20.10;99.90
48666;DHT22;34452;50.796;4.994;2023-07-31T13:20:01;20.40;99.90
48666;DHT22;34452;50.796;4.994;2023-07-31T13:22:28;20.70;99.90
48666;DHT22;34452;50.796;4.994;2023-07-31T13:24:54;20.80;99.90
48666;DHT22;34452;50.796;4.994;2023-07-31T13:27:20;20.70;99.90
48666;DHT22;34452;50.796;4.994;2023-07-31T13:29:48;20.60;99.90
48666;DHT22;34452;50.796;4.994;2023-07-31T13:32:15;20.50;99.90
48666;DHT22;34452;50.796;4.994;2023-07-31T13:34:41;20.40;99.90
48666;DHT22;34452;50.796;4.994;2023-07-31T13:37:06;20.30;99.90
48666;DHT22;34452;50.796;4.994;2023-07-31T13:39:32;20.10;99.90
48666;DHT22;34452;50.796;4.994;2023-07-31T13:41:59;20.10;99.90
48666;DHT22;34452;50.796;4.994;2023-07-31T13:44:25;20.00;99.90
48666;DHT22;34452;50.796;4.994;2023-07-31T13:46:51;20.00;99.90
48666;DHT22;34452;50.796;4.994;2023-07-31T13:49:17;19.90;99.90
48666;DHT22;34452;50.796;4.994;2023-07-31T13:51:43;19.80;99.90
48666;DHT22;34452;50.796;4.994;2023-07-31T13:54:08;19.80;99.90
48666;DHT22;34452;50.796;4.994;2023-07-31T13:56:37;19.80;99.90
48666;DHT22;34452;50.796;4.994;2023-07-31T13:59:02;19.70;99.90
48666;DHT22;34452;50.796;4.994;2023-07-31T14:01:28;19.60;99.90
48666;DHT22;34452;50.796;4.994;2023-07-31T14:03:54;19.40;99.90
48666;DHT22;34452;50.796;4.994;2023-07-31T14:06:20;19.30;99.90
48666;DHT22;34452;50.796;4.994;2023-07-31T14:08:45;19.10;99.90
48666;DHT22;34452;50.796;4.994;2023-07-31T14:11:11;19.10;99.90
48666;DHT22;34452;50.796;4.994;2023-07-31T14:13:37;19.00;99.90
48666;DHT22;34452;50.796;4.994;2023-07-31T14:16:02;19.00;99.90
48666;DHT22;34452;50.796;4.994;2023-07-31T14:18:28;19.00;99.90
48666;DHT22;34452;50.796;4.994;2023-07-31T14:20:54;19.00;99.90
48666;DHT22;34452;50.796;4.994;2023-07-31T14:23:20;19.10;99.90
48666;DHT22;34452;50.796;4.994;2023-07-31T14:25:46;19.00;99.90
48666;DHT22;34452;50.796;4.994;2023-07-31T14:28:12;19.00;99.90
48666;DHT22;34452;50.796;4.994;2023-07-31T14:30:38;19.00;99.90
48666;DHT22;34452;50.796;4.994;2023-07-31T14:33:04;19.00;99.90
48666;DHT22;34452;50.796;4.994;2023-07-31T14:35:29;18.90;99.90
48666;DHT22;34452;50.796;4.994;2023-07-31T14:37:55;18.80;99.90
48666;DHT22;34452;50.796;4.994;2023-07-31T14:40:21;18.70;99.90
48666;DHT22;34452;50.796;4.994;2023-07-31T14:42:46;18.60;99.90
48666;DHT22;34452;50.796;4.994;2023-07-31T14:45:12;18.50;99.90
48666;DHT22;34452;50.796;4.994;2023-07-31T14:47:38;18.40;99.90
48666;DHT22;34452;50.796;4.994;2023-07-31T14:50:04;18.40;99.90
48666;DHT22;34452;50.796;4.994;2023-07-31T14:52:30;18.40;99.90
48666;DHT22;34452;50.796;4.994;2023-07-31T14:54:56;18.30;99.90
48666;DHT22;34452;50.796;4.994;2023-07-31T14:57:21;18.30;99.90
48666;DHT22;34452;50.796;4.994;2023-07-31T14:59:47;18.40;99.90
48666;DHT22;34452;50.796;4.994;2023-07-31T15:02:14;18.40;99.90
48666;DHT22;34452;50.796;4.994;2023-07-31T15:04:40;18.40;99.90
48666;DHT22;34452;50.796;4.994;2023-07-31T15:07:05;18.50;99.90
48666;DHT22;34452;50.796;4.994;2023-07-31T15:09:31;18.50;99.90
48666;DHT22;34452;50.796;4.994;2023-07-31T15:11:57;18.50;99.90
48666;DHT22;34452;50.796;4.994;2023-07-31T15:14:24;18.50;99.90
48666;DHT22;34452;50.796;4.994;2023-07-31T15:16:50;18.50;99.90
48666;DHT22;34452;50.796;4.994;2023-07-31T15:19:16;18.50;99.90
48666;DHT22;34452;50.796;4.994;2023-07-31T15:21:42;18.50;99.90
48666;DHT22;34452;50.796;4.994;2023-07-31T15:24:07;18.60;99.90
48666;DHT22;34452;50.796;4.994;2023-07-31T15:26:33;18.60;99.90
48666;DHT22;34452;50.796;4.994;2023-07-31T15:29:29;18.50;99.90
48666;DHT22;34452;50.796;4.994;2023-07-31T15:31:55;18.40;99.90
48666;DHT22;34452;50.796;4.994;2023-07-31T15:34:21;18.40;99.90
48666;DHT22;34452;50.796;4.994;2023-07-31T15:36:47;18.40;99.90